sensor_id;sensor_type;location;lat;lon;timestamp;temperature;humidity
13251;DHT22;6692;50.710;7.180;2023-03-01T00:00:43;0.00;99.90
13251;DHT22;6692;50.710;7.180;2023-03-01T00:02:44;0.00;99.90
13251;DHT22;6692;50.710;7.180;2023-03-01T00:04:45;0.00;99.90
13251;DHT22;6692;50.710;7.180;2023-03-01T00:06:46;0.00;99.90
13251;DHT22;6692;50.710;7.180;2023-03-01T00:08:47;0.00;99.90
13251;DHT22;6692;50.710;7.180;2023-03-01T00:10:48;-0.10;99.90
13251;DHT22;6692;50.710;7.180;2023-03-01T00:12:49;-0.10;99.90
13251;DHT22;6692;50.710;7.180;2023-03-01T00:14:50;-0.10;99.90
13251;DHT22;6692;50.710;7.180;2023-03-01T00:16:51;-0.10;99.90
13251;DHT22;6692;50.710;7.180;2023-03-01T00:18:53;-0.10;99.90
13251;DHT22;6692;50.710;7.180;2023-03-01T00:20:53;-0.20;99.90
13251;DHT22;6692;50.710;7.180;2023-03-01T00:22:54;-0.20;99.90
13251;DHT22;6692;50.710;7.180;2023-03-01T00:24:54;-0.20;99.90
13251;DHT22;6692;50.710;7.180;2023-03-01T00:26:55;-0.20;99.90
13251;DHT22;6692;50.710;7.180;2023-03-01T00:28:56;-0.20;99.90
13251;DHT22;6692;50.710;7.180;2023-03-01T00:30:56;-0.30;99.90
13251;DHT22;6692;50.710;7.180;2023-03-01T00:32:57;-0.30;99.90
13251;DHT22;6692;50.710;7.180;2023-03-01T00:34:57;-0.30;99.90
13251;DHT22;6692;50.710;7.180;2023-03-01T00:36:58;-0.30;99.90
13251;DHT22;6692;50.710;7.180;2023-03-01T00:39:00;-0.30;99.90
13251;DHT22;6692;50.710;7.180;2023-03-01T00:41:03;-0.30;99.90
13251;DHT22;6692;50.710;7.180;2023-03-01T00:43:04;-0.30;99.90
13251;DHT22;6692;50.710;7.180;2023-03-01T00:45:05;-0.30;99.90
13251;DHT22;6692;50.710;7.180;2023-03-01T00:47:06;-0.30;99.90
13251;DHT22;6692;50.710;7.180;2023-03-01T00:49:07;-0.30;99.90
13251;DHT22;6692;50.710;7.180;2023-03-01T00:51:10;-0.30;99.90
13251;DHT22;6692;50.710;7.180;2023-03-01T00:53:10;-0.30;99.90
13251;DHT22;6692;50.710;7.180;2023-03-01T00:55:11;-0.40;99.90
13251;DHT22;6692;50.710;7.180;2023-03-01T00:57:13;-0.40;99.90
13251;DHT22;6692;50.710;7.180;2023-03-01T00:59:14;-0.40;99.90
13251;DHT22;6692;50.710;7.180;2023-03-01T01:01:16;-0.40;99.90
13251;DHT22;6692;50.710;7.180;2023-03-01T01:03:17;-0.30;99.90
13251;DHT22;6692;50.710;7.180;2023-03-01T01:05:18;-0.40;99.90
13251;DHT22;6692;50.710;7.180;2023-03-01T01:07:18;-0.40;99.90
13251;DHT22;6692;50.710;7.180;2023-03-01T01:09:19;-0.40;99.90
13251;DHT22;6692;50.710;7.180;2023-03-01T01:11:20;-0.50;99.90
13251;DHT22;6692;50.710;7.180;2023-03-01T01:13:20;-0.50;99.90
13251;DHT22;6692;50.710;7.180;2023-03-01T01:15:21;-0.50;99.90
13251;DHT22;6692;50.710;7.180;2023-03-01T01:17:22;-0.50;99.90
13251;DHT22;6692;50.710;7.180;2023-03-01T01:19:22;-0.50;99.90
13251;DHT22;6692;50.710;7.180;2023-03-01T01:21:23;-0.50;99.90
13251;DHT22;6692;50.710;7.180;2023-03-01T01:23:24;-0.50;99.90
13251;DHT22;6692;50.710;7.180;2023-03-01T01:25:24;-0.50;99.90
13251;DHT22;6692;50.710;7.180;2023-03-01T01:27:25;-0.50;99.90
13251;DHT22;6692;50.710;7.180;2023-03-01T01:29:26;-0.50;99.90
13251;DHT22;6692;50.710;7.180;2023-03-01T01:31:27;-0.50;99.90
13251;DHT22;6692;50.710;7.180;2023-03-01T01:33:27;-0.60;99.90
13251;DHT22;6692;50.710;7.180;2023-03-01T01:35:28;-0.60;99.90
13251;DHT22;6692;50.710;7.180;2023-03-01T01:37:29;-0.60;99.90
13251;DHT22;6692;50.710;7.180;2023-03-01T01:39:29;-0.60;99.90
13251;DHT22;6692;50.710;7.180;2023-03-01T01:41:31;-0.70;99.90
13251;DHT22;6692;50.710;7.180;2023-03-01T01:55:41;-0.60;99.90
13251;DHT22;6692;50.710;7.180;2023-03-01T01:57:41;-0.70;99.90
13251;DHT22;6692;50.710;7.180;2023-03-01T01:59:43;-0.80;99.90
13251;DHT22;6692;50.710;7.180;2023-03-01T02:01:42;-0.80;99.90
13251;DHT22;6692;50.710;7.180;2023-03-01T02:03:43;-0.80;99.90
13251;DHT22;6692;50.710;7.180;2023-03-01T02:08:07;-0.70;99.90
13251;DHT22;6692;50.710;7.180;2023-03-01T02:10:09;-0.70;99.90
13251;DHT22;6692;50.710;7.180;2023-03-01T02:12:10;-0.70;99.90
13251;DHT22;6692;50.710;7.180;2023-03-01T02:14:10;-0.80;99.90
13251;DHT22;6692;50.710;7.180;2023-03-01T02:16:12;-0.80;99.90
13251;DHT22;6692;50.710;7.180;2023-03-01T02:18:15;-0.80;99.90
13251;DHT22;6692;50.710;7.180;2023-03-01T02:20:23;-0.80;99.90
13251;DHT22;6692;50.710;7.180;2023-03-01T02:22:23;-0.90;99.90
13251;DHT22;6692;50.710;7.180;2023-03-01T02:24:28;-0.90;99.90
13251;DHT22;6692;50.710;7.180;2023-03-01T02:26:34;-0.90;99.90
13251;DHT22;6692;50.710;7.180;2023-03-01T02:28:36;-0.90;99.90
13251;DHT22;6692;50.710;7.180;2023-03-01T02:30:36;-0.90;99.90
13251;DHT22;6692;50.710;7.180;2023-03-01T02:32:36;-0.90;99.90
13251;DHT22;6692;50.710;7.180;2023-03-01T02:34:37;-1.00;99.90
13251;DHT22;6692;50.710;7.180;2023-03-01T02:36:39;-1.00;99.90
13251;DHT22;6692;50.710;7.180;2023-03-01T02:38:41;-1.00;99.90
13251;DHT22;6692;50.710;7.180;2023-03-01T02:40:41;-1.00;99.90
13251;DHT22;6692;50.710;7.180;2023-03-01T02:42:49;-1.00;99.90
13251;DHT22;6692;50.710;7.180;2023-03-01T02:44:48;-1.00;99.90
13251;DHT22;6692;50.710;7.180;2023-03-01T02:46:49;-1.00;99.90
13251;DHT22;6692;50.710;7.180;2023-03-01T02:48:53;-1.10;99.90
13251;DHT22;6692;50.710;7.180;2023-03-01T02:51:03;-1.10;99.90
13251;DHT22;6692;50.710;7.180;2023-03-01T02:53:10;-1.10;99.90
13251;DHT22;6692;50.710;7.180;2023-03-01T02:55:09;-1.10;99.90
13251;DHT22;6692;50.710;7.180;2023-03-01T02:57:09;-1.10;99.90
13251;DHT22;6692;50.710;7.180;2023-03-01T02:59:10;-1.20;99.90
13251;DHT22;6692;50.710;7.180;2023-03-01T03:01:12;-1.10;99.90
13251;DHT22;6692;50.710;7.180;2023-03-01T03:03:13;-1.20;99.90
13251;DHT22;6692;50.710;7.180;2023-03-01T03:05:16;-1.20;99.90
13251;DHT22;6692;50.710;7.180;2023-03-01T03:07:16;-1.20;99.90
13251;DHT22;6692;50.710;7.180;2023-03-01T03:09:17;-1.30;99.90
13251;DHT22;6692;50.710;7.180;2023-03-01T03:11:18;-1.30;99.90
13251;DHT22;6692;50.710;7.180;2023-03-01T03:13:18;-1.20;99.90
13251;DHT22;6692;50.710;7.180;2023-03-01T03:15:19;-1.20;99.90
13251;DHT22;6692;50.710;7.180;2023-03-01T03:17:20;-1.30;99.90
13251;DHT22;6692;50.710;7.180;2023-03-01T03:19:20;-1.30;99.90
13251;DHT22;6692;50.710;7.180;2023-03-01T03:21:21;-1.30;99.90
13251;DHT22;6692;50.710;7.180;2023-03-01T03:23:22;-1.30;99.90
13251;DHT22;6692;50.710;7.180;2023-03-01T03:25:23;-1.40;99.90
13251;DHT22;6692;50.710;7.180;2023-03-01T03:27:24;-1.40;99.90
13251;DHT22;6692;50.710;7.180;2023-03-01T03:29:24;-1.30;99.90
13251;DHT22;6692;50.710;7.180;2023-03-01T03:31:25;-1.30;99.90
13251;DHT22;6692;50.710;7.180;2023-03-01T03:33:26;-1.30;99.90
13251;DHT22;6692;50.710;7.180;2023-03-01T03:35:28;-1.30;99.90
13251;DHT22;6692;50.710;7.180;2023-03-01T03:37:29;-1.40;99.90
13251;DHT22;6692;50.710;7.180;2023-03-01T03:39:35;-1.40;99.90
13251;DHT22;6692;50.710;7.180;2023-03-01T03:41:37;-1.40;99.90
13251;DHT22;6692;50.710;7.180;2023-03-01T03:43:39;-1.40;99.90
13251;DHT22;6692;50.710;7.180;2023-03-01T03:45:39;-1.50;99.90
13251;DHT22;6692;50.710;7.180;2023-03-01T03:47:40;-1.40;99.90
13251;DHT22;6692;50.710;7.180;2023-03-01T03:49:40;-1.40;99.90
13251;DHT22;6692;50.710;7.180;2023-03-01T03:51:41;-1.40;99.90
13251;DHT22;6692;50.710;7.180;2023-03-01T03:53:44;-1.40;99.90
13251;DHT22;6692;50.710;7.180;2023-03-01T03:55:44;-1.40;99.90
13251;DHT22;6692;50.710;7.180;2023-03-01T03:57:45;-1.40;99.90
13251;DHT22;6692;50.710;7.180;2023-03-01T03:59:45;-1.50;99.90
13251;DHT22;6692;50.710;7.180;2023-03-01T04:01:46;-1.40;99.90
13251;DHT22;6692;50.710;7.180;2023-03-01T04:03:46;-1.50;99.90
13251;DHT22;6692;50.710;7.180;2023-03-01T04:05:47;-1.50;99.90
13251;DHT22;6692;50.710;7.180;2023-03-01T04:07:48;-1.50;99.90
13251;DHT22;6692;50.710;7.180;2023-03-01T04:09:48;-1.50;99.90
13251;DHT22;6692;50.710;7.180;2023-03-01T04:11:50;-1.40;99.90
13251;DHT22;6692;50.710;7.180;2023-03-01T04:13:51;-1.50;99.90
13251;DHT22;6692;50.710;7.180;2023-03-01T04:15:52;-1.50;99.90
13251;DHT22;6692;50.710;7.180;2023-03-01T04:17:52;-1.40;99.90
13251;DHT22;6692;50.710;7.180;2023-03-01T04:19:52;-1.50;99.90
13251;DHT22;6692;50.710;7.180;2023-03-01T04:21:53;-1.50;99.90
13251;DHT22;6692;50.710;7.180;2023-03-01T04:23:54;-1.40;99.90
13251;DHT22;6692;50.710;7.180;2023-03-01T04:25:55;-1.50;99.90
13251;DHT22;6692;50.710;7.180;2023-03-01T04:27:55;-1.50;99.90
13251;DHT22;6692;50.710;7.180;2023-03-01T04:29:56;-1.50;99.90
13251;DHT22;6692;50.710;7.180;2023-03-01T04:31:56;-1.50;99.90
13251;DHT22;6692;50.710;7.180;2023-03-01T04:33:57;-1.50;99.90
13251;DHT22;6692;50.710;7.180;2023-03-01T04:35:58;-1.60;99.90
13251;DHT22;6692;50.710;7.180;2023-03-01T04:37:58;-1.60;99.90
13251;DHT22;6692;50.710;7.180;2023-03-01T04:39:59;-1.60;99.90
13251;DHT22;6692;50.710;7.180;2023-03-01T04:42:00;-1.60;99.90
13251;DHT22;6692;50.710;7.180;2023-03-01T04:44:01;-1.60;99.90
13251;DHT22;6692;50.710;7.180;2023-03-01T04:46:04;-1.60;99.90
13251;DHT22;6692;50.710;7.180;2023-03-01T04:48:05;-1.60;99.90
13251;DHT22;6692;50.710;7.180;2023-03-01T04:50:07;-1.60;99.90
13251;DHT22;6692;50.710;7.180;2023-03-01T04:52:08;-1.60;99.90
13251;DHT22;6692;50.710;7.180;2023-03-01T04:54:09;-1.60;99.90
13251;DHT22;6692;50.710;7.180;2023-03-01T04:56:10;-1.70;99.90
13251;DHT22;6692;50.710;7.180;2023-03-01T04:58:10;-1.70;99.90
13251;DHT22;6692;50.710;7.180;2023-03-01T05:00:12;-1.70;99.90
13251;DHT22;6692;50.710;7.180;2023-03-01T05:02:19;-1.70;99.90
13251;DHT22;6692;50.710;7.180;2023-03-01T05:04:19;-1.70;99.90
13251;DHT22;6692;50.710;7.180;2023-03-01T05:06:20;-1.70;99.90
13251;DHT22;6692;50.710;7.180;2023-03-01T05:08:21;-1.70;99.90
13251;DHT22;6692;50.710;7.180;2023-03-01T05:10:22;-1.70;99.90
13251;DHT22;6692;50.710;7.180;2023-03-01T05:12:22;-1.70;99.90
13251;DHT22;6692;50.710;7.180;2023-03-01T05:14:23;-1.80;99.90
13251;DHT22;6692;50.710;7.180;2023-03-01T05:16:23;-1.80;99.90
13251;DHT22;6692;50.710;7.180;2023-03-01T05:18:25;-1.80;99.90
13251;DHT22;6692;50.710;7.180;2023-03-01T05:20:29;-1.80;99.90
13251;DHT22;6692;50.710;7.180;2023-03-01T05:22:29;-1.90;99.90
13251;DHT22;6692;50.710;7.180;2023-03-01T05:24:31;-1.80;99.90
13251;DHT22;6692;50.710;7.180;2023-03-01T05:26:30;-1.80;99.90
13251;DHT22;6692;50.710;7.180;2023-03-01T05:28:31;-1.80;99.90
13251;DHT22;6692;50.710;7.180;2023-03-01T05:30:32;-1.80;99.90
13251;DHT22;6692;50.710;7.180;2023-03-01T05:32:32;-1.80;99.90
13251;DHT22;6692;50.710;7.180;2023-03-01T05:34:34;-1.80;99.90
13251;DHT22;6692;50.710;7.180;2023-03-01T05:36:34;-1.80;99.90
13251;DHT22;6692;50.710;7.180;2023-03-01T05:38:34;-1.90;99.90
13251;DHT22;6692;50.710;7.180;2023-03-01T05:40:35;-1.90;99.90
13251;DHT22;6692;50.710;7.180;2023-03-01T05:42:35;-1.90;99.90
13251;DHT22;6692;50.710;7.180;2023-03-01T05:44:36;-1.90;99.90
13251;DHT22;6692;50.710;7.180;2023-03-01T05:46:37;-2.00;99.90
13251;DHT22;6692;50.710;7.180;2023-03-01T05:48:37;-1.90;99.90
13251;DHT22;6692;50.710;7.180;2023-03-01T05:50:40;-1.90;99.90
13251;DHT22;6692;50.710;7.180;2023-03-01T05:52:40;-1.90;99.90
13251;DHT22;6692;50.710;7.180;2023-03-01T05:54:40;-1.90;99.90
13251;DHT22;6692;50.710;7.180;2023-03-01T05:56:42;-1.90;99.90
13251;DHT22;6692;50.710;7.180;2023-03-01T05:58:43;-2.00;99.90
13251;DHT22;6692;50.710;7.180;2023-03-01T06:00:44;-2.00;99.90
13251;DHT22;6692;50.710;7.180;2023-03-01T06:02:45;-2.00;99.90
13251;DHT22;6692;50.710;7.180;2023-03-01T06:04:46;-2.00;99.90
13251;DHT22;6692;50.710;7.180;2023-03-01T06:06:47;-2.00;99.90
13251;DHT22;6692;50.710;7.180;2023-03-01T06:08:47;-2.00;99.90
13251;DHT22;6692;50.710;7.180;2023-03-01T06:10:48;-1.90;99.90
13251;DHT22;6692;50.710;7.180;2023-03-01T06:12:49;-2.00;99.90
13251;DHT22;6692;50.710;7.180;2023-03-01T06:14:50;-2.00;99.90
13251;DHT22;6692;50.710;7.180;2023-03-01T06:16:51;-2.00;99.90
13251;DHT22;6692;50.710;7.180;2023-03-01T06:18:51;-2.00;99.90
13251;DHT22;6692;50.710;7.180;2023-03-01T06:20:53;-2.00;99.90
13251;DHT22;6692;50.710;7.180;2023-03-01T06:22:53;-2.00;99.90
13251;DHT22;6692;50.710;7.180;2023-03-01T06:24:53;-2.00;99.90
13251;DHT22;6692;50.710;7.180;2023-03-01T06:26:54;-2.00;99.90
13251;DHT22;6692;50.710;7.180;2023-03-01T06:28:55;-2.00;99.90
13251;DHT22;6692;50.710;7.180;2023-03-01T06:30:55;-2.00;99.90
13251;DHT22;6692;50.710;7.180;2023-03-01T06:32:56;-2.00;99.90
13251;DHT22;6692;50.710;7.180;2023-03-01T06:34:57;-2.00;99.90
13251;DHT22;6692;50.710;7.180;2023-03-01T06:36:58;-2.00;99.90
13251;DHT22;6692;50.710;7.180;2023-03-01T06:38:59;-2.00;99.90
13251;DHT22;6692;50.710;7.180;2023-03-01T06:40:59;-2.00;99.90
13251;DHT22;6692;50.710;7.180;2023-03-01T06:43:01;-2.00;99.90
13251;DHT22;6692;50.710;7.180;2023-03-01T06:45:03;-2.00;99.90
13251;DHT22;6692;50.710;7.180;2023-03-01T06:47:04;-2.00;99.90
13251;DHT22;6692;50.710;7.180;2023-03-01T06:49:04;-2.00;99.90
13251;DHT22;6692;50.710;7.180;2023-03-01T06:51:05;-1.90;99.90
13251;DHT22;6692;50.710;7.180;2023-03-01T06:53:05;-1.90;99.90
13251;DHT22;6692;50.710;7.180;2023-03-01T06:55:07;-1.90;99.90
13251;DHT22;6692;50.710;7.180;2023-03-01T06:57:08;-1.80;99.90
13251;DHT22;6692;50.710;7.180;2023-03-01T06:59:09;-1.80;99.90
13251;DHT22;6692;50.710;7.180;2023-03-01T07:01:10;-1.80;99.90
13251;DHT22;6692;50.710;7.180;2023-03-01T07:03:11;-1.80;99.90
13251;DHT22;6692;50.710;7.180;2023-03-01T07:05:12;-1.80;99.90
13251;DHT22;6692;50.710;7.180;2023-03-01T07:07:12;-1.80;99.90
13251;DHT22;6692;50.710;7.180;2023-03-01T07:09:13;-1.80;99.90
13251;DHT22;6692;50.710;7.180;2023-03-01T07:11:14;-1.70;99.90
13251;DHT22;6692;50.710;7.180;2023-03-01T07:13:14;-1.70;99.90
13251;DHT22;6692;50.710;7.180;2023-03-01T07:15:15;-1.70;99.90
13251;DHT22;6692;50.710;7.180;2023-03-01T07:17:16;-1.60;99.90
13251;DHT22;6692;50.710;7.180;2023-03-01T07:19:16;-1.60;99.90
13251;DHT22;6692;50.710;7.180;2023-03-01T07:21:17;-1.60;99.90
13251;DHT22;6692;50.710;7.180;2023-03-01T07:23:19;-1.60;99.90
13251;DHT22;6692;50.710;7.180;2023-03-01T07:25:19;-1.70;99.90
13251;DHT22;6692;50.710;7.180;2023-03-01T07:27:21;-1.70;99.90
13251;DHT22;6692;50.710;7.180;2023-03-01T07:29:22;-1.70;99.90
13251;DHT22;6692;50.710;7.180;2023-03-01T07:31:23;-1.60;99.90
13251;DHT22;6692;50.710;7.180;2023-03-01T07:33:24;-1.60;99.90
13251;DHT22;6692;50.710;7.180;2023-03-01T07:35:26;-1.60;99.90
13251;DHT22;6692;50.710;7.180;2023-03-01T07:37:26;-1.60;99.90
13251;DHT22;6692;50.710;7.180;2023-03-01T07:39:27;-1.60;99.90
13251;DHT22;6692;50.710;7.180;2023-03-01T07:41:29;-1.50;99.90
13251;DHT22;6692;50.710;7.180;2023-03-01T07:43:29;-1.50;99.90
13251;DHT22;6692;50.710;7.180;2023-03-01T07:45:30;-1.40;99.90
13251;DHT22;6692;50.710;7.180;2023-03-01T07:47:31;-1.40;99.90
13251;DHT22;6692;50.710;7.180;2023-03-01T07:49:31;-1.30;99.90
13251;DHT22;6692;50.710;7.180;2023-03-01T07:51:32;-1.20;99.90
13251;DHT22;6692;50.710;7.180;2023-03-01T07:53:32;-1.20;99.90
13251;DHT22;6692;50.710;7.180;2023-03-01T07:55:33;-1.10;99.90
13251;DHT22;6692;50.710;7.180;2023-03-01T07:57:34;-1.00;99.90
13251;DHT22;6692;50.710;7.180;2023-03-01T07:59:35;-0.90;99.90
13251;DHT22;6692;50.710;7.180;2023-03-01T08:01:36;-0.90;99.90
13251;DHT22;6692;50.710;7.180;2023-03-01T08:03:37;-0.90;99.90
13251;DHT22;6692;50.710;7.180;2023-03-01T08:05:37;-0.80;99.90
13251;DHT22;6692;50.710;7.180;2023-03-01T08:07:38;-0.80;99.90
13251;DHT22;6692;50.710;7.180;2023-03-01T08:09:38;-0.80;99.90
13251;DHT22;6692;50.710;7.180;2023-03-01T08:11:39;-0.80;99.90
13251;DHT22;6692;50.710;7.180;2023-03-01T08:13:41;-0.80;99.90
13251;DHT22;6692;50.710;7.180;2023-03-01T08:15:42;-0.70;99.90
13251;DHT22;6692;50.710;7.180;2023-03-01T08:17:43;-0.70;99.90
13251;DHT22;6692;50.710;7.180;2023-03-01T08:19:43;-0.60;99.90
13251;DHT22;6692;50.710;7.180;2023-03-01T08:21:45;-0.60;99.90
13251;DHT22;6692;50.710;7.180;2023-03-01T08:23:45;-0.60;99.90
13251;DHT22;6692;50.710;7.180;2023-03-01T08:25:47;-0.40;99.90
13251;DHT22;6692;50.710;7.180;2023-03-01T08:27:48;-0.50;99.90
13251;DHT22;6692;50.710;7.180;2023-03-01T08:29:48;-0.40;99.90
13251;DHT22;6692;50.710;7.180;2023-03-01T08:31:49;-0.30;99.90
13251;DHT22;6692;50.710;7.180;2023-03-01T08:33:51;-0.30;99.90
13251;DHT22;6692;50.710;7.180;2023-03-01T08:35:52;-0.20;99.90
13251;DHT22;6692;50.710;7.180;2023-03-01T08:37:53;-0.20;99.90
13251;DHT22;6692;50.710;7.180;2023-03-01T08:39:53;-0.10;99.90
13251;DHT22;6692;50.710;7.180;2023-03-01T08:41:54;0.00;99.90
13251;DHT22;6692;50.710;7.180;2023-03-01T08:43:55;0.20;99.90
13251;DHT22;6692;50.710;7.180;2023-03-01T08:45:57;0.30;99.90
13251;DHT22;6692;50.710;7.180;2023-03-01T08:47:57;0.30;99.90
13251;DHT22;6692;50.710;7.180;2023-03-01T08:49:58;0.40;99.90
13251;DHT22;6692;50.710;7.180;2023-03-01T08:51:59;0.50;99.90
13251;DHT22;6692;50.710;7.180;2023-03-01T08:54:00;0.50;99.90
13251;DHT22;6692;50.710;7.180;2023-03-01T08:56:01;0.60;99.90
13251;DHT22;6692;50.710;7.180;2023-03-01T08:58:01;0.70;99.90
13251;DHT22;6692;50.710;7.180;2023-03-01T09:00:02;0.80;99.90
13251;DHT22;6692;50.710;7.180;2023-03-01T09:02:04;0.90;99.90
13251;DHT22;6692;50.710;7.180;2023-03-01T09:04:05;1.00;99.90
13251;DHT22;6692;50.710;7.180;2023-03-01T09:06:06;1.00;99.90
13251;DHT22;6692;50.710;7.180;2023-03-01T09:08:06;1.10;99.90
13251;DHT22;6692;50.710;7.180;2023-03-01T09:10:09;1.20;99.90
13251;DHT22;6692;50.710;7.180;2023-03-01T09:12:11;1.20;99.90
13251;DHT22;6692;50.710;7.180;2023-03-01T09:14:13;1.20;99.90
13251;DHT22;6692;50.710;7.180;2023-03-01T09:16:14;1.30;99.90
13251;DHT22;6692;50.710;7.180;2023-03-01T09:18:14;1.40;99.90
13251;DHT22;6692;50.710;7.180;2023-03-01T09:20:15;1.40;99.90
13251;DHT22;6692;50.710;7.180;2023-03-01T09:22:16;1.50;99.90
13251;DHT22;6692;50.710;7.180;2023-03-01T09:24:18;1.50;99.90
13251;DHT22;6692;50.710;7.180;2023-03-01T09:26:19;1.50;99.90
13251;DHT22;6692;50.710;7.180;2023-03-01T09:28:18;1.50;99.90
13251;DHT22;6692;50.710;7.180;2023-03-01T09:30:19;1.50;99.90
13251;DHT22;6692;50.710;7.180;2023-03-01T09:32:20;1.60;99.90
13251;DHT22;6692;50.710;7.180;2023-03-01T09:34:22;1.70;99.90
13251;DHT22;6692;50.710;7.180;2023-03-01T09:36:23;1.70;99.90
13251;DHT22;6692;50.710;7.180;2023-03-01T09:38:23;1.70;99.90
13251;DHT22;6692;50.710;7.180;2023-03-01T09:40:25;1.70;99.90
13251;DHT22;6692;50.710;7.180;2023-03-01T09:42:25;1.70;99.90
13251;DHT22;6692;50.710;7.180;2023-03-01T09:44:32;1.80;99.90
13251;DHT22;6692;50.710;7.180;2023-03-01T09:46:32;1.80;99.90
13251;DHT22;6692;50.710;7.180;2023-03-01T09:48:36;1.80;99.90
13251;DHT22;6692;50.710;7.180;2023-03-01T09:50:35;1.90;99.90
13251;DHT22;6692;50.710;7.180;2023-03-01T09:52:39;1.90;99.90
13251;DHT22;6692;50.710;7.180;2023-03-01T09:54:39;1.90;99.90
13251;DHT22;6692;50.710;7.180;2023-03-01T09:56:44;2.00;99.90
13251;DHT22;6692;50.710;7.180;2023-03-01T09:58:51;2.00;99.90
13251;DHT22;6692;50.710;7.180;2023-03-01T10:00:49;2.10;99.90
13251;DHT22;6692;50.710;7.180;2023-03-01T10:02:52;2.10;99.90
13251;DHT22;6692;50.710;7.180;2023-03-01T10:04:55;2.20;99.90
13251;DHT22;6692;50.710;7.180;2023-03-01T10:07:14;2.20;99.90
13251;DHT22;6692;50.710;7.180;2023-03-01T10:09:12;2.20;99.90
13251;DHT22;6692;50.710;7.180;2023-03-01T10:11:23;2.30;99.90
13251;DHT22;6692;50.710;7.180;2023-03-01T10:15:48;2.50;99.90
13251;DHT22;6692;50.710;7.180;2023-03-01T10:17:53;2.50;99.90
13251;DHT22;6692;50.710;7.180;2023-03-01T10:19:52;2.60;99.90
13251;DHT22;6692;50.710;7.180;2023-03-01T10:21:53;2.60;99.90
13251;DHT22;6692;50.710;7.180;2023-03-01T10:23:54;2.70;99.90
13251;DHT22;6692;50.710;7.180;2023-03-01T10:28:02;2.80;99.90
13251;DHT22;6692;50.710;7.180;2023-03-01T10:30:05;2.80;99.90
13251;DHT22;6692;50.710;7.180;2023-03-01T10:32:03;2.90;99.90
13251;DHT22;6692;50.710;7.180;2023-03-01T10:34:11;2.90;99.90
13251;DHT22;6692;50.710;7.180;2023-03-01T10:36:10;2.90;99.90
13251;DHT22;6692;50.710;7.180;2023-03-01T10:38:12;3.00;99.90
13251;DHT22;6692;50.710;7.180;2023-03-01T10:40:12;3.00;99.90
13251;DHT22;6692;50.710;7.180;2023-03-01T10:42:19;3.10;99.90
13251;DHT22;6692;50.710;7.180;2023-03-01T10:46:34;3.20;99.90
13251;DHT22;6692;50.710;7.180;2023-03-01T10:48:34;3.20;99.90
13251;DHT22;6692;50.710;7.180;2023-03-01T10:50:35;3.20;99.90
13251;DHT22;6692;50.710;7.180;2023-03-01T10:52:37;3.30;99.90
13251;DHT22;6692;50.710;7.180;2023-03-01T10:54:37;3.30;99.90
13251;DHT22;6692;50.710;7.180;2023-03-01T10:56:46;3.30;99.90
13251;DHT22;6692;50.710;7.180;2023-03-01T10:58:58;3.40;99.90
13251;DHT22;6692;50.710;7.180;2023-03-01T11:00:59;3.40;99.90
13251;DHT22;6692;50.710;7.180;2023-03-01T11:03:03;3.40;99.90
13251;DHT22;6692;50.710;7.180;2023-03-01T11:05:16;3.50;99.90
13251;DHT22;6692;50.710;7.180;2023-03-01T11:07:09;3.50;99.90
13251;DHT22;6692;50.710;7.180;2023-03-01T11:09:17;3.60;99.90
13251;DHT22;6692;50.710;7.180;2023-03-01T11:11:19;3.60;99.90
13251;DHT22;6692;50.710;7.180;2023-03-01T11:13:19;3.70;99.90
13251;DHT22;6692;50.710;7.180;2023-03-01T11:15:25;3.70;99.90
13251;DHT22;6692;50.710;7.180;2023-03-01T11:17:27;3.80;99.90
13251;DHT22;6692;50.710;7.180;2023-03-01T11:19:25;3.90;99.90
13251;DHT22;6692;50.710;7.180;2023-03-01T11:21:26;4.00;99.90
13251;DHT22;6692;50.710;7.180;2023-03-01T11:23:27;4.00;99.90
13251;DHT22;6692;50.710;7.180;2023-03-01T11:25:30;4.10;99.90
13251;DHT22;6692;50.710;7.180;2023-03-01T11:27:30;4.10;99.90
13251;DHT22;6692;50.710;7.180;2023-03-01T11:29:35;4.10;99.90
13251;DHT22;6692;50.710;7.180;2023-03-01T11:31:33;4.20;99.90
13251;DHT22;6692;50.710;7.180;2023-03-01T11:33:41;4.10;99.90
13251;DHT22;6692;50.710;7.180;2023-03-01T11:35:42;4.20;99.90
13251;DHT22;6692;50.710;7.180;2023-03-01T11:37:49;4.20;99.90
13251;DHT22;6692;50.710;7.180;2023-03-01T11:39:49;4.20;99.90
13251;DHT22;6692;50.710;7.180;2023-03-01T11:41:48;4.20;99.90
13251;DHT22;6692;50.710;7.180;2023-03-01T11:44:21;4.30;99.90
13251;DHT22;6692;50.710;7.180;2023-03-01T11:46:43;4.30;99.90
13251;DHT22;6692;50.710;7.180;2023-03-01T11:48:47;4.30;99.90
13251;DHT22;6692;50.710;7.180;2023-03-01T11:50:47;4.40;99.90
13251;DHT22;6692;50.710;7.180;2023-03-01T11:53:09;4.40;99.90
13251;DHT22;6692;50.710;7.180;2023-03-01T11:55:25;4.40;99.90
13251;DHT22;6692;50.710;7.180;2023-03-01T12:06:52;4.60;99.90
13251;DHT22;6692;50.710;7.180;2023-03-01T12:09:44;4.60;99.90
13251;DHT22;6692;50.710;7.180;2023-03-01T12:11:52;4.60;99.90
13251;DHT22;6692;50.710;7.180;2023-03-01T12:14:12;4.60;99.90
13251;DHT22;6692;50.710;7.180;2023-03-01T12:18:45;4.70;99.90
13251;DHT22;6692;50.710;7.180;2023-03-01T12:21:07;4.80;99.90
13251;DHT22;6692;50.710;7.180;2023-03-01T12:25:34;4.90;99.90
13251;DHT22;6692;50.710;7.180;2023-03-01T12:27:50;4.90;99.90
13251;DHT22;6692;50.710;7.180;2023-03-01T12:30:05;5.10;99.90
13251;DHT22;6692;50.710;7.180;2023-03-01T12:32:20;5.00;99.90
13251;DHT22;6692;50.710;7.180;2023-03-01T12:34:38;5.10;99.90
13251;DHT22;6692;50.710;7.180;2023-03-01T12:38:48;5.20;99.90
13251;DHT22;6692;50.710;7.180;2023-03-01T12:40:58;5.30;99.90
13251;DHT22;6692;50.710;7.180;2023-03-01T12:43:03;5.30;99.90
13251;DHT22;6692;50.710;7.180;2023-03-01T12:45:22;5.50;99.90
13251;DHT22;6692;50.710;7.180;2023-03-01T12:47:26;5.40;99.90
13251;DHT22;6692;50.710;7.180;2023-03-01T12:49:24;5.60;99.90
13251;DHT22;6692;50.710;7.180;2023-03-01T12:51:24;5.60;99.90
13251;DHT22;6692;50.710;7.180;2023-03-01T12:53:26;5.70;99.90
13251;DHT22;6692;50.710;7.180;2023-03-01T12:55:38;5.90;99.90
13251;DHT22;6692;50.710;7.180;2023-03-01T12:57:42;6.10;99.90
13251;DHT22;6692;50.710;7.180;2023-03-01T12:59:46;6.80;99.90
13251;DHT22;6692;50.710;7.180;2023-03-01T13:02:05;7.70;99.90
13251;DHT22;6692;50.710;7.180;2023-03-01T13:06:22;9.80;99.90
13251;DHT22;6692;50.710;7.180;2023-03-01T13:08:32;10.80;99.90
13251;DHT22;6692;50.710;7.180;2023-03-01T13:10:41;12.10;99.90
13251;DHT22;6692;50.710;7.180;2023-03-01T13:12:44;12.00;99.90
13251;DHT22;6692;50.710;7.180;2023-03-01T13:14:44;12.40;99.90
13251;DHT22;6692;50.710;7.180;2023-03-01T13:16:45;12.50;99.90
13251;DHT22;6692;50.710;7.180;2023-03-01T13:18:45;12.50;99.90
13251;DHT22;6692;50.710;7.180;2023-03-01T13:20:47;12.70;99.90
13251;DHT22;6692;50.710;7.180;2023-03-01T13:22:47;12.80;99.90
13251;DHT22;6692;50.710;7.180;2023-03-01T13:24:48;12.80;99.90
13251;DHT22;6692;50.710;7.180;2023-03-01T13:29:02;12.70;99.90
13251;DHT22;6692;50.710;7.180;2023-03-01T13:31:04;12.80;99.90
13251;DHT22;6692;50.710;7.180;2023-03-01T13:35:40;12.80;99.90
13251;DHT22;6692;50.710;7.180;2023-03-01T13:37:40;12.90;99.90
13251;DHT22;6692;50.710;7.180;2023-03-01T13:39:41;12.80;99.90
13251;DHT22;6692;50.710;7.180;2023-03-01T13:41:51;12.60;99.90
13251;DHT22;6692;50.710;7.180;2023-03-01T13:43:51;12.40;99.90
13251;DHT22;6692;50.710;7.180;2023-03-01T13:45:52;12.30;99.90
13251;DHT22;6692;50.710;7.180;2023-03-01T13:47:54;12.20;99.90
13251;DHT22;6692;50.710;7.180;2023-03-01T13:49:58;12.20;99.90
13251;DHT22;6692;50.710;7.180;2023-03-01T13:51:58;12.10;99.90